Time;durP1;ratioP1;P1;durP2;ratioP2;P2;SDS_P1;SDS_P2;PMS_P1;PMS_P2;Temp;Humidity;BMP_temperature;BMP_pressure;BME280_temperature;BME280_humidity;BME280_pressure;Samples;Min_cycle;Max_cycle;Signal;HPM_P1;HPM_P2
2023/06/03 00:01:21;;;;;;;13.60;8.95;;;;;;;17.42;100.00;100882.28;21149459;28;20092;-80
2023/06/03 00:11:46;;;;;;;18.02;10.60;;;;;;;17.39;100.00;100878.78;21118900;28;20044;-80
2023/06/03 00:22:09;;;;;;;18.48;11.85;;;;;;;17.41;100.00;100867.19;21126088;28;20051;-80
2023/06/03 00:32:33;;;;;;;18.15;12.20;;;;;;;17.40;100.00;100853.84;21138083;27;20063;-80
2023/06/03 00:42:56;;;;;;;18.77;12.23;;;;;;;17.36;100.00;100866.34;21147841;27;20043;-80
2023/06/03 00:53:21;;;;;;;18.88;11.63;;;;;;;17.38;100.00;100871.69;21158533;28;20051;-80
2023/06/03 01:03:44;;;;;;;19.90;11.88;;;;;;;17.39;100.00;100855.63;21158816;27;20084;-79
2023/06/03 01:14:16;;;;;;;16.45;11.00;;;;;;;17.40;100.00;100865.41;21149025;27;20047;-79
2023/06/03 01:24:42;;;;;;;20.95;13.73;;;;;;;17.31;100.00;100868.19;21152578;28;20752;-79
2023/06/03 01:35:08;;;;;;;20.52;12.52;;;;;;;17.23;100.00;100853.13;21129597;27;20380;-79
2023/06/03 01:45:33;;;;;;;18.30;12.52;;;;;;;17.12;100.00;100866.59;21147773;28;20087;-80
2023/06/03 01:55:56;;;;;;;16.48;10.60;;;;;;;17.06;100.00;100880.88;21152685;27;20044;-80
2023/06/03 02:06:20;;;;;;;13.63;10.30;;;;;;;17.04;100.00;100895.13;21157768;27;20559;-79
2023/06/03 02:16:43;;;;;;;19.80;13.10;;;;;;;16.84;100.00;100897.06;21127445;28;20047;-80
2023/06/03 02:27:09;;;;;;;19.25;12.25;;;;;;;16.77;100.00;100884.69;21146741;27;20043;-80
2023/06/03 02:37:32;;;;;;;17.35;12.48;;;;;;;16.72;100.00;100898.06;21129204;28;20808;-78
2023/06/03 02:47:57;;;;;;;18.45;13.70;;;;;;;16.62;100.00;100907.88;21129627;28;20534;-79
2023/06/03 02:58:22;;;;;;;16.33;12.82;;;;;;;16.51;100.00;100912.38;21126106;27;20051;-79
2023/06/03 03:08:46;;;;;;;21.90;14.43;;;;;;;16.45;100.00;100911.53;21135093;28;20512;-79
2023/06/03 03:19:10;;;;;;;17.45;11.63;;;;;;;16.37;100.00;100937.31;21139509;28;20044;-80
2023/06/03 03:29:38;;;;;;;13.60;10.30;;;;;;;16.45;100.00;100946.16;21123990;28;20122;-79
2023/06/03 03:40:08;;;;;;;15.07;9.02;;;;;;;16.56;100.00;100966.53;21141446;28;20048;-79
2023/06/03 03:50:45;;;;;;;15.48;8.35;;;;;;;16.82;100.00;100966.41;21127684;28;20043;-79
2023/06/03 04:01:12;;;;;;;10.03;6.27;;;;;;;17.13;100.00;100969.75;21156492;27;20043;-78
2023/06/03 04:11:40;;;;;;;11.57;6.97;;;;;;;17.37;100.00;100974.88;21148271;27;20170;-78
2023/06/03 04:22:08;;;;;;;10.38;6.40;;;;;;;17.82;100.00;100978.03;21149264;28;20042;-79
2023/06/03 04:32:33;;;;;;;10.43;5.95;;;;;;;18.36;100.00;100986.31;21136607;28;20048;-80
2023/06/03 04:42:56;;;;;;;9.30;5.72;;;;;;;18.85;100.00;100991.88;21122050;28;20047;-83
2023/06/03 04:53:25;;;;;;;8.45;4.82;;;;;;;19.13;100.00;100997.72;21210954;27;20048;-84
2023/06/03 05:03:49;;;;;;;10.65;5.03;;;;;;;19.56;100.00;100996.13;21145485;28;20056;-85
2023/06/03 05:14:14;;;;;;;7.40;4.50;;;;;;;20.19;100.00;100983.31;21189786;27;20043;-82
2023/06/03 05:24:37;;;;;;;8.50;4.75;;;;;;;20.87;100.00;100977.41;21159233;27;20171;-81
2023/06/03 05:35:03;;;;;;;8.48;3.92;;;;;;;21.28;100.00;100971.94;21141844;27;20047;-79
2023/06/03 05:45:26;;;;;;;7.20;4.07;;;;;;;21.57;100.00;100981.06;21134483;28;20055;-80
2023/06/03 05:55:53;;;;;;;10.82;4.57;;;;;;;22.13;100.00;100988.50;21128392;28;20054;-79
2023/06/03 06:06:16;;;;;;;9.32;5.28;;;;;;;22.82;100.00;100991.88;21132570;28;20048;-79
2023/06/03 06:16:41;;;;;;;8.15;4.80;;;;;;;23.35;100.00;100990.13;21113080;27;20050;-79
2023/06/03 06:27:05;;;;;;;11.15;4.80;;;;;;;23.68;100.00;101002.50;21146659;27;20047;-77
2023/06/03 06:37:30;;;;;;;9.48;4.80;;;;;;;23.88;100.00;101023.38;21146198;27;20063;-76
2023/06/03 06:47:59;;;;;;;8.07;4.57;;;;;;;24.01;100.00;101037.31;21137631;27;20047;-77
2023/06/03 06:58:26;;;;;;;9.07;4.45;;;;;;;24.39;100.00;101042.25;21136486;27;20132;-77
2023/06/03 07:08:50;;;;;;;9.15;4.53;;;;;;;24.23;100.00;101060.81;21149133;27;20055;-77
2023/06/03 07:19:16;;;;;;;8.73;4.38;;;;;;;24.48;100.00;101052.69;21144982;27;20048;-78
2023/06/03 07:29:43;;;;;;;10.63;4.60;;;;;;;24.95;100.00;101067.13;21159253;27;20437;-78
2023/06/03 07:40:15;;;;;;;8.02;4.38;;;;;;;25.34;100.00;101080.88;21159052;27;20051;-77
2023/06/03 07:50:39;;;;;;;8.88;4.47;;;;;;;25.57;100.00;101092.59;21139317;27;20039;-77
2023/06/03 08:01:05;;;;;;;8.50;4.50;;;;;;;25.50;100.00;101089.25;21189460;27;20047;-78
2023/06/03 08:11:28;;;;;;;11.57;4.78;;;;;;;25.86;100.00;101100.41;21141234;27;20117;-78
2023/06/03 08:21:53;;;;;;;8.13;4.10;;;;;;;26.12;100.00;101102.84;21170094;27;20083;-78
2023/06/03 08:32:16;;;;;;;9.53;4.30;;;;;;;26.26;100.00;101086.06;21189963;27;20047;-78
2023/06/03 08:42:45;;;;;;;8.38;3.90;;;;;;;26.12;100.00;101078.50;21204768;27;20051;-78
2023/06/03 08:53:11;;;;;;;6.35;3.90;;;;;;;26.25;100.00;101087.03;21178232;27;20039;-78
2023/06/03 09:03:36;;;;;;;;;;;;;;;26.41;100.00;101093.50;21123405;28;20539;-78
2023/06/03 09:14:01;;;;;;;7.60;4.05;;;;;;;26.54;100.00;101092.00;21180808;27;19945;-78
2023/06/03 09:24:27;;;;;;;8.07;4.10;;;;;;;26.83;100.00;101098.81;21188525;27;20096;-79
2023/06/03 09:34:50;;;;;;;8.13;4.35;;;;;;;26.93;100.00;101104.69;21162800;27;21071;-80
2023/06/03 09:45:30;;;;;;;10.18;4.38;;;;;;;27.32;100.00;101100.09;21125369;27;20050;-80
2023/06/03 09:55:53;;;;;;;7.13;3.88;;;;;;;27.29;100.00;101104.81;21142849;27;20487;-81
2023/06/03 10:06:20;;;;;;;8.50;4.18;;;;;;;27.29;100.00;101096.66;21165111;27;20088;-80
2023/06/03 10:16:43;;;;;;;6.93;3.58;;;;;;;27.54;100.00;101102.69;21150237;27;20052;-80
2023/06/03 10:27:09;;;;;;;9.05;3.97;;;;;;;27.43;100.00;101109.56;21153047;27;20048;-80
2023/06/03 10:37:32;;;;;;;;;;;;;;;27.18;100.00;101112.53;21156645;27;20056;-79
2023/06/03 10:48:01;;;;;;;9.55;4.78;;;;;;;27.56;100.00;101117.06;21131044;28;19927;-78
2023/06/03 10:58:26;;;;;;;9.85;4.32;;;;;;;27.76;100.00;101122.34;21194851;27;20055;-78
2023/06/03 11:09:02;;;;;;;7.93;4.00;;;;;;;27.98;100.00;101107.69;21119126;27;20043;-77
2023/06/03 11:19:28;;;;;;;9.45;4.05;;;;;;;28.18;100.00;101123.88;21099967;28;20056;-78
2023/06/03 11:29:59;;;;;;;7.32;3.60;;;;;;;28.44;100.00;101128.84;21099213;28;20057;-77
2023/06/03 11:40:23;;;;;;;6.78;3.85;;;;;;;28.13;100.00;101112.34;21124129;28;20048;-78
2023/06/03 11:50:53;;;;;;;8.48;4.28;;;;;;;27.75;100.00;101098.91;21126270;28;20069;-77
2023/06/03 12:01:17;;;;;;;7.35;4.20;;;;;;;27.54;100.00;101110.81;21141938;28;20053;-77
2023/06/03 12:11:43;;;;;;;8.38;4.18;;;;;;;27.47;100.00;101090.34;21149909;28;20115;-77
2023/06/03 12:22:07;;;;;;;6.88;3.83;;;;;;;27.69;100.00;101090.19;21166021;27;20055;-77
2023/06/03 12:32:51;;;;;;;9.68;4.70;;;;;;;28.14;100.00;101096.03;21101225;28;20081;-77
2023/06/03 12:43:21;;;;;;;7.85;3.95;;;;;;;28.34;100.00;101085.94;21137606;27;20047;-76
2023/06/03 12:53:46;;;;;;;6.93;3.97;;;;;;;28.26;100.00;101094.50;21176776;27;20046;-77
2023/06/03 13:04:10;;;;;;;6.10;3.85;;;;;;;28.04;100.00;101091.97;21142799;27;20048;-77
2023/06/03 13:14:34;;;;;;;7.80;4.22;;;;;;;28.10;100.00;101101.63;21158529;27;20495;-77
2023/06/03 13:24:56;;;;;;;8.10;4.13;;;;;;;27.83;100.00;101097.66;21169673;27;20050;-77
2023/06/03 13:35:20;;;;;;;8.40;4.00;;;;;;;27.60;100.00;101120.47;21219108;27;20064;-76
2023/06/03 13:45:43;;;;;;;10.00;4.20;;;;;;;27.61;100.00;101108.69;21150009;27;20047;-76
2023/06/03 13:56:08;;;;;;;9.25;3.97;;;;;;;27.98;100.00;101121.28;21201236;27;20548;-77
2023/06/03 14:06:30;;;;;;;9.20;3.92;;;;;;;28.05;100.00;101112.75;21176353;27;20108;-76
2023/06/03 14:16:54;;;;;;;8.60;4.57;;;;;;;28.21;100.00;101096.59;21134329;27;20056;-76
2023/06/03 14:27:18;;;;;;;9.77;3.90;;;;;;;28.14;100.00;101096.03;21137212;27;20593;-76
2023/06/03 14:37:42;;;;;;;7.10;4.10;;;;;;;28.21;100.00;101084.84;21182878;27;20039;-75
2023/06/03 14:48:05;;;;;;;7.40;4.05;;;;;;;28.12;100.00;101092.47;21161813;27;20043;-76
2023/06/03 14:58:29;;;;;;;8.68;3.75;;;;;;;28.00;100.00;101090.38;21074941;28;20044;-77
2023/06/03 15:08:54;;;;;;;7.30;3.97;;;;;;;27.89;100.00;101098.22;21147943;28;20051;-76
2023/06/03 15:19:18;;;;;;;9.35;3.95;;;;;;;27.66;100.00;101096.63;21193542;27;20051;-77
2023/06/03 15:29:40;;;;;;;7.88;4.13;;;;;;;27.32;100.00;101093.78;21193309;27;20109;-76
2023/06/03 15:40:06;;;;;;;8.45;4.20;;;;;;;26.51;100.00;101088.56;21168264;28;20044;-76
2023/06/03 15:50:29;;;;;;;9.60;4.82;;;;;;;25.75;100.00;101083.72;21152158;28;20142;-76
2023/06/03 16:00:53;;;;;;;8.60;4.40;;;;;;;25.13;100.00;101108.78;21156467;27;20051;-76
2023/06/03 16:11:16;;;;;;;9.38;4.28;;;;;;;24.73;100.00;101128.28;21159795;27;20061;-78
2023/06/03 16:21:41;;;;;;;11.15;4.93;;;;;;;24.32;100.00;101148.66;21168420;27;20062;-77
2023/06/03 16:32:05;;;;;;;7.75;4.57;;;;;;;24.05;100.00;101171.16;21152125;27;20052;-76
2023/06/03 16:42:29;;;;;;;12.05;5.18;;;;;;;23.84;100.00;101181.72;21143609;27;20058;-77
2023/06/03 16:52:53;;;;;;;12.30;5.60;;;;;;;23.54;100.00;101198.88;21158661;27;20084;-77
2023/06/03 17:03:19;;;;;;;11.75;6.85;;;;;;;23.32;100.00;101220.16;21138546;27;20043;-77
2023/06/03 17:13:42;;;;;;;12.75;6.63;;;;;;;23.07;100.00;101220.91;21137907;27;20051;-76
2023/06/03 17:24:07;;;;;;;13.27;7.70;;;;;;;22.83;100.00;101233.28;21125358;27;20047;-75
2023/06/03 17:34:30;;;;;;;12.70;6.78;;;;;;;22.66;100.00;101241.75;21087116;27;20040;-75
2023/06/03 17:44:54;;;;;;;23.42;17.30;;;;;;;22.48;100.00;101243.13;21129728;27;20040;-75
2023/06/03 17:55:17;;;;;;;15.63;8.93;;;;;;;22.27;100.00;101243.66;21131600;27;20518;-75
2023/06/03 18:05:41;;;;;;;19.02;9.77;;;;;;;21.99;100.00;101264.94;21148314;27;20587;-77
2023/06/03 18:16:04;;;;;;;20.05;12.85;;;;;;;21.85;100.00;101275.13;21134961;27;20079;-76
2023/06/03 18:26:28;;;;;;;13.43;8.10;;;;;;;21.72;100.00;101287.94;21174757;27;20043;-77
2023/06/03 18:36:51;;;;;;;13.00;8.80;;;;;;;21.46;100.00;101291.16;21150245;27;20097;-77
2023/06/03 18:47:16;;;;;;;17.85;8.40;;;;;;;21.38;100.00;101306.59;21125119;27;20073;-76
2023/06/03 18:57:39;;;;;;;17.50;10.20;;;;;;;21.10;100.00;101332.16;21112846;27;20101;-76
2023/06/03 19:08:03;;;;;;;12.27;7.80;;;;;;;20.77;100.00;101324.69;21129289;28;20043;-77
2023/06/03 19:18:26;;;;;;;15.95;9.10;;;;;;;20.73;100.00;101349.84;21123546;27;20048;-77
2023/06/03 19:28:50;;;;;;;14.10;8.77;;;;;;;20.68;100.00;101357.94;21130369;28;20062;-77
2023/06/03 19:39:12;;;;;;;18.35;8.82;;;;;;;20.53;100.00;101360.88;21131742;28;20090;-76
2023/06/03 19:49:37;;;;;;;19.20;9.25;;;;;;;20.40;100.00;101370.03;21127074;28;20040;-76
2023/06/03 20:00:00;;;;;;;17.33;9.10;;;;;;;20.27;100.00;101366.63;21162653;27;20058;-76
2023/06/03 20:10:24;;;;;;;13.38;8.52;;;;;;;20.21;100.00;101366.72;21140638;28;20082;-77
2023/06/03 20:20:47;;;;;;;14.85;8.70;;;;;;;20.20;100.00;101371.19;21144849;28;20055;-76
2023/06/03 20:31:12;;;;;;;13.30;8.85;;;;;;;19.98;100.00;101355.41;21147919;28;20054;-75
2023/06/03 20:41:34;;;;;;;15.43;9.20;;;;;;;19.88;100.00;101371.63;21141626;27;20052;-76
2023/06/03 20:51:59;;;;;;;14.10;9.73;;;;;;;19.59;100.00;101346.06;21120344;28;20051;-77
2023/06/03 21:02:21;;;;;;;14.88;9.60;;;;;;;19.63;100.00;101356.72;21151363;27;20125;-77
2023/06/03 21:12:45;;;;;;;16.13;9.18;;;;;;;19.70;100.00;101355.75;21147256;27;20055;-77
2023/06/03 21:23:08;;;;;;;12.25;9.63;;;;;;;19.42;100.00;101355.19;21123756;28;20054;-77
2023/06/03 21:33:32;;;;;;;14.38;9.63;;;;;;;19.40;100.00;101364.13;21158710;27;20047;-76
2023/06/03 21:43:55;;;;;;;17.45;10.10;;;;;;;19.35;100.00;101348.13;21133987;28;20166;-78
2023/06/03 21:54:19;;;;;;;16.15;10.45;;;;;;;19.22;100.00;101329.53;21116935;28;20048;-76
2023/06/03 22:04:42;;;;;;;18.05;10.20;;;;;;;19.15;100.00;101325.13;21098975;27;20099;-76
2023/06/03 22:15:07;;;;;;;14.23;9.05;;;;;;;19.02;100.00;101329.72;21149752;27;20767;-77
2023/06/03 22:25:30;;;;;;;12.57;9.10;;;;;;;19.04;100.00;101319.88;21138158;27;20746;-76
2023/06/03 22:35:54;;;;;;;14.32;9.23;;;;;;;18.95;100.00;101310.16;21113365;28;20490;-77
2023/06/03 22:46:17;;;;;;;15.70;9.77;;;;;;;18.76;100.00;101296.97;21142146;27;20047;-76
2023/06/03 22:56:41;;;;;;;14.95;8.85;;;;;;;18.76;100.00;101294.31;21157366;27;20043;-77
2023/06/03 23:07:03;;;;;;;13.63;9.38;;;;;;;18.57;100.00;101278.44;21154271;27;20074;-76
2023/06/03 23:17:27;;;;;;;12.60;8.98;;;;;;;18.54;100.00;101269.50;21172285;27;20054;-76
2023/06/03 23:27:50;;;;;;;14.48;8.77;;;;;;;18.22;100.00;101264.44;21135372;27;20039;-77
2023/06/03 23:38:14;;;;;;;14.98;9.30;;;;;;;18.20;100.00;101269.78;21149719;28;20070;-76
2023/06/03 23:48:37;;;;;;;15.00;10.38;;;;;;;18.18;100.00;101266.22;21138301;28;20043;-77
2023/06/03 23:59:02;;;;;;;16.75;10.50;;;;;;;18.07;100.00;101260.06;21125832;28;20697;-76
